createdAt,value
2019-02-05T00:00:04.559Z,95.00
2019-02-05T00:02:35.147Z,94.80
2019-02-05T00:05:06.361Z,94.90
2019-02-05T00:07:36.813Z,94.80
2019-02-05T00:10:07.268Z,94.90
2019-02-05T00:12:37.631Z,94.80
2019-02-05T00:15:08.538Z,94.80
2019-02-05T00:17:39.289Z,94.60
2019-02-05T00:20:10.243Z,94.60
2019-02-05T00:22:40.820Z,95.00
2019-02-05T00:25:11.271Z,94.70
2019-02-05T00:27:41.739Z,94.80
2019-02-05T00:30:12.105Z,95.00
2019-02-05T00:32:42.822Z,95.00
2019-02-05T00:35:13.429Z,95.20
2019-02-05T00:37:44.056Z,95.10
2019-02-05T00:40:14.443Z,95.10
2019-02-05T00:42:45.065Z,95.10
2019-02-05T00:45:15.895Z,95.30
2019-02-05T00:47:46.460Z,95.10
2019-02-05T00:50:17.298Z,95.30
2019-02-05T00:52:47.272Z,95.30
2019-02-05T00:55:17.599Z,95.30
2019-02-05T00:57:48.076Z,95.40
2019-02-05T01:00:25.241Z,96.20
2019-02-05T01:02:55.509Z,96.10
2019-02-05T01:05:26.107Z,96.40
2019-02-05T01:07:56.810Z,96.10
2019-02-05T01:10:27.987Z,95.90
2019-02-05T01:12:58.510Z,95.90
2019-02-05T01:15:28.845Z,95.90
2019-02-05T01:18:18.167Z,95.70
2019-02-05T01:20:48.089Z,95.70
2019-02-05T01:23:18.459Z,96.00
2019-02-05T01:25:48.985Z,95.80
2019-02-05T01:28:19.683Z,96.00
2019-02-05T01:30:49.855Z,95.30
2019-02-05T01:33:20.499Z,95.40
2019-02-05T01:35:51.478Z,95.70
2019-02-05T01:38:22.068Z,95.30
2019-02-05T01:40:51.921Z,95.40
2019-02-05T01:43:22.555Z,95.80
2019-02-05T01:45:53.207Z,96.00
2019-02-05T01:48:23.669Z,96.10
2019-02-05T01:50:53.899Z,95.90
2019-02-05T01:53:24.198Z,95.80
2019-02-05T01:55:54.457Z,95.90
2019-02-05T01:58:24.687Z,96.00
2019-02-05T02:00:55.266Z,96.00
2019-02-05T02:03:25.935Z,95.80
2019-02-05T02:05:56.426Z,95.70
2019-02-05T02:08:26.959Z,95.90
2019-02-05T02:10:57.599Z,95.90
2019-02-05T02:13:28.146Z,95.60
2019-02-05T02:15:58.406Z,95.70
2019-02-05T02:18:28.995Z,95.40
2019-02-05T02:20:59.309Z,94.80
2019-02-05T02:23:29.791Z,95.10
2019-02-05T02:26:00.289Z,95.00
2019-02-05T02:28:30.499Z,94.90
2019-02-05T02:31:01.563Z,95.30
2019-02-05T02:33:32.219Z,95.30
2019-02-05T02:36:02.663Z,95.20
2019-02-05T02:38:33.041Z,95.20
2019-02-05T02:41:03.681Z,95.10
2019-02-05T02:43:33.999Z,94.60
2019-02-05T02:46:04.210Z,94.20
2019-02-05T02:48:34.605Z,94.70
2019-02-05T02:51:05.141Z,95.00
2019-02-05T02:53:35.509Z,95.20
2019-02-05T02:56:06.367Z,94.60
2019-02-05T02:58:36.729Z,94.40
2019-02-05T03:01:07.254Z,94.40
2019-02-05T03:03:37.842Z,94.60
2019-02-05T03:06:27.103Z,94.50
2019-02-05T03:08:58.191Z,94.00
2019-02-05T03:11:28.710Z,94.40
2019-02-05T03:13:58.941Z,94.20
2019-02-05T03:16:29.461Z,93.90
2019-02-05T03:19:00.020Z,93.30
2019-02-05T03:21:30.662Z,93.80
2019-02-05T03:24:00.927Z,94.00
2019-02-05T03:26:31.268Z,94.40
2019-02-05T03:29:01.943Z,94.90
2019-02-05T03:31:32.625Z,94.70
2019-02-05T03:34:03.201Z,94.60
2019-02-05T03:36:52.520Z,94.30
2019-02-05T03:39:22.800Z,93.50
2019-02-05T03:41:53.482Z,93.00
2019-02-05T03:44:23.969Z,93.80
2019-02-05T03:46:54.552Z,93.60
2019-02-05T03:49:25.130Z,93.60
2019-02-05T03:52:11.564Z,93.30
2019-02-05T03:55:05.444Z,93.80
2019-02-05T03:57:51.805Z,93.00
2019-02-05T04:00:56.139Z,93.30
2019-02-05T04:03:48.367Z,94.00
2019-02-05T04:06:58.803Z,94.10
2019-02-05T04:10:24.793Z,95.30
2019-02-05T04:13:31.359Z,95.30
2019-02-05T04:16:42.911Z,94.60
2019-02-05T04:20:12.188Z,93.90
2019-02-05T04:23:37.157Z,93.00
2019-02-05T04:26:38.977Z,93.40
2019-02-05T04:29:33.271Z,93.80
2019-02-05T04:32:32.581Z,94.00
2019-02-05T04:35:28.571Z,93.90
2019-02-05T04:38:33.844Z,94.00
2019-02-05T04:41:21.431Z,93.90
2019-02-05T04:44:16.202Z,93.60
2019-02-05T04:47:10.993Z,92.70
2019-02-05T04:50:08.281Z,93.20
2019-02-05T04:53:37.169Z,93.20
2019-02-05T04:56:32.406Z,93.10
2019-02-05T04:59:51.839Z,93.40
2019-02-05T05:03:11.077Z,93.70
2019-02-05T05:06:10.026Z,93.80
2019-02-05T05:09:05.353Z,94.30
2019-02-05T05:11:35.787Z,94.90
2019-02-05T05:14:06.439Z,95.30
2019-02-05T05:16:36.969Z,95.60
2019-02-05T05:19:07.486Z,95.60
2019-02-05T05:21:38.261Z,95.40
2019-02-05T05:24:08.785Z,95.50
2019-02-05T05:26:39.558Z,95.20
2019-02-05T05:29:10.161Z,94.80
2019-02-05T05:31:40.855Z,94.70
2019-02-05T05:34:11.647Z,95.30
2019-02-05T05:36:50.007Z,95.40
2019-02-05T05:39:21.056Z,95.30
2019-02-05T05:41:51.630Z,95.30
2019-02-05T05:44:22.305Z,95.50
2019-02-05T05:46:53.047Z,95.70
2019-02-05T05:49:23.930Z,95.80
2019-02-05T05:51:54.475Z,96.30
2019-02-05T05:54:25.065Z,96.50
2019-02-05T05:56:55.380Z,96.80
2019-02-05T05:59:26.018Z,96.80
2019-02-05T06:01:56.347Z,96.60
2019-02-05T06:04:26.657Z,96.20
2019-02-05T06:06:57.329Z,95.80
2019-02-05T06:09:27.895Z,95.40
2019-02-05T06:12:00.939Z,95.50
2019-02-05T06:14:31.469Z,95.50
2019-02-05T06:17:02.097Z,95.30
2019-02-05T06:19:32.587Z,95.10
2019-02-05T06:22:03.159Z,95.30
2019-02-05T06:24:33.739Z,95.20
2019-02-05T06:27:19.589Z,95.30
2019-02-05T06:29:50.147Z,95.20
2019-02-05T06:32:20.120Z,95.20
2019-02-05T06:34:50.609Z,95.10
2019-02-05T06:37:20.980Z,95.20
2019-02-05T06:39:56.926Z,95.20
2019-02-05T06:42:27.269Z,95.20
2019-02-05T06:44:57.567Z,95.10
2019-02-05T06:47:46.957Z,95.20
2019-02-05T06:50:17.392Z,95.30
2019-02-05T06:52:47.702Z,95.30
2019-02-05T06:55:18.291Z,95.30
2019-02-05T06:57:48.895Z,95.40
2019-02-05T07:00:25.168Z,95.40
2019-02-05T07:02:55.869Z,95.30
2019-02-05T07:05:26.141Z,95.40
2019-02-05T07:07:56.735Z,95.50
2019-02-05T07:10:27.454Z,95.30
2019-02-05T07:12:59.291Z,95.10
2019-02-05T07:15:29.918Z,95.30
2019-02-05T07:18:00.537Z,95.10
2019-02-05T07:20:30.528Z,95.10
2019-02-05T07:23:00.982Z,94.90
2019-02-05T07:25:31.166Z,94.80
2019-02-05T07:28:01.861Z,94.80
2019-02-05T07:30:32.535Z,95.00
2019-02-05T07:33:03.019Z,95.20
2019-02-05T07:35:33.716Z,95.30
2019-02-05T07:38:07.496Z,95.30
2019-02-05T07:40:38.157Z,95.40
2019-02-05T07:43:08.442Z,95.20
2019-02-05T07:45:39.055Z,95.30
2019-02-05T07:48:09.440Z,95.30
2019-02-05T07:50:39.729Z,95.20
2019-02-05T07:53:10.176Z,95.20
2019-02-05T07:55:40.541Z,95.50
2019-02-05T07:58:11.260Z,95.80
2019-02-05T08:00:41.542Z,95.30
2019-02-05T08:03:12.211Z,95.30
2019-02-05T08:05:42.647Z,95.40
2019-02-05T08:08:13.405Z,95.50
2019-02-05T08:10:43.798Z,95.20
2019-02-05T08:13:14.403Z,95.00
2019-02-05T08:15:45.073Z,94.80
2019-02-05T08:18:15.759Z,94.90
2019-02-05T08:20:46.269Z,94.80
2019-02-05T08:23:16.641Z,94.60
2019-02-05T08:25:47.382Z,94.60
2019-02-05T08:28:17.629Z,94.40
2019-02-05T08:30:49.518Z,94.40
2019-02-05T08:33:20.156Z,94.40
2019-02-05T08:35:50.794Z,94.50
2019-02-05T08:38:21.368Z,94.60
2019-02-05T08:40:51.685Z,94.70
2019-02-05T08:43:22.368Z,94.40
2019-02-05T08:45:56.814Z,94.40
2019-02-05T08:48:25.280Z,94.80
2019-02-05T08:50:55.553Z,95.00
2019-02-05T08:53:25.759Z,95.00
2019-02-05T08:55:56.170Z,95.10
2019-02-05T08:58:31.110Z,94.90
2019-02-05T09:00:59.036Z,95.00
2019-02-05T09:03:29.411Z,94.80
2019-02-05T09:05:59.971Z,94.70
2019-02-05T09:08:30.502Z,94.40
2019-02-05T09:11:19.912Z,94.50
2019-02-05T09:13:51.872Z,94.30
2019-02-05T09:16:22.521Z,94.30
2019-02-05T09:18:52.827Z,94.20
2019-02-05T09:21:23.044Z,94.00
2019-02-05T09:23:53.494Z,94.10
2019-02-05T09:26:24.155Z,94.30
2019-02-05T09:28:54.447Z,94.10
2019-02-05T09:31:25.030Z,94.00
2019-02-05T09:33:55.659Z,93.90
2019-02-05T09:36:26.190Z,94.00
2019-02-05T09:38:56.729Z,94.10
2019-02-05T09:41:27.328Z,94.00
2019-02-05T09:43:57.744Z,93.80
2019-02-05T09:46:28.274Z,93.90
2019-02-05T09:48:58.656Z,93.60
2019-02-05T09:51:28.906Z,93.00
2019-02-05T09:53:59.520Z,93.20
2019-02-05T09:56:30.324Z,93.40
2019-02-05T09:59:00.906Z,93.50
2019-02-05T10:01:31.262Z,93.30
2019-02-05T10:04:01.917Z,93.30
2019-02-05T10:06:32.225Z,93.40
2019-02-05T10:09:02.142Z,93.60
2019-02-05T10:11:32.176Z,93.60
2019-02-05T10:14:02.087Z,93.30
2019-02-05T10:16:32.676Z,93.20
2019-02-05T10:19:03.368Z,93.30
2019-02-05T10:21:34.126Z,93.40
2019-02-05T10:24:05.087Z,93.90
2019-02-05T10:26:35.454Z,94.20
2019-02-05T10:29:05.880Z,94.30
2019-02-05T10:31:35.887Z,93.70
2019-02-05T10:34:06.260Z,94.00
2019-02-05T10:36:36.300Z,94.00
2019-02-05T10:39:09.742Z,93.30
2019-02-05T10:41:40.485Z,93.70
2019-02-05T10:44:11.254Z,93.90
2019-02-05T10:46:41.656Z,93.40
2019-02-05T10:49:12.410Z,93.40
2019-02-05T10:51:42.821Z,93.60
2019-02-05T10:54:13.392Z,93.40
2019-02-05T10:56:43.932Z,93.40
2019-02-05T10:59:14.524Z,93.50
2019-02-05T11:01:44.752Z,93.60
2019-02-05T11:04:15.350Z,93.50
2019-02-05T11:06:45.408Z,93.70
2019-02-05T11:09:15.689Z,93.40
2019-02-05T11:11:46.382Z,93.10
2019-02-05T11:14:17.096Z,92.70
2019-02-05T11:16:47.699Z,92.60
2019-02-05T11:19:18.536Z,92.70
2019-02-05T11:21:48.484Z,92.80
2019-02-05T11:24:18.825Z,92.60
2019-02-05T11:26:49.159Z,92.60
2019-02-05T11:29:19.888Z,92.60
2019-02-05T11:31:49.378Z,92.40
2019-02-05T11:34:19.823Z,92.60
2019-02-05T11:36:50.156Z,92.70
2019-02-05T11:39:20.432Z,92.50
2019-02-05T11:41:50.798Z,92.50
2019-02-05T11:44:21.405Z,92.40
2019-02-05T11:46:52.076Z,92.20
2019-02-05T11:49:22.656Z,92.00
2019-02-05T11:51:53.025Z,92.20
2019-02-05T11:54:23.603Z,91.70
2019-02-05T11:56:53.844Z,91.70
2019-02-05T11:59:24.550Z,91.40
2019-02-05T12:01:55.092Z,91.10
2019-02-05T12:04:25.448Z,91.10
2019-02-05T12:06:56.118Z,91.10
2019-02-05T12:09:26.940Z,90.60
2019-02-05T12:11:57.561Z,90.60
2019-02-05T12:14:27.602Z,90.20
2019-02-05T12:16:58.180Z,89.80
2019-02-05T12:19:28.580Z,89.60
2019-02-05T12:21:59.162Z,89.00
2019-02-05T12:24:29.425Z,89.10
2019-02-05T12:26:59.998Z,88.70
2019-02-05T12:29:29.950Z,87.80
2019-02-05T12:32:00.665Z,88.60
2019-02-05T12:34:31.250Z,88.70
2019-02-05T12:37:01.602Z,88.60
2019-02-05T12:39:32.248Z,88.80
2019-02-05T12:42:02.394Z,88.30
2019-02-05T12:44:32.732Z,88.80
2019-02-05T12:47:02.584Z,88.70
2019-02-05T12:49:32.872Z,88.90
2019-02-05T12:52:03.458Z,89.40
2019-02-05T12:54:34.033Z,89.20
2019-02-05T12:57:05.942Z,89.00
2019-02-05T12:59:36.276Z,89.40
2019-02-05T13:02:06.567Z,88.90
2019-02-05T13:04:37.106Z,89.40
2019-02-05T13:07:08.406Z,89.50
2019-02-05T13:09:38.597Z,89.60
2019-02-05T13:12:08.779Z,89.80
2019-02-05T13:14:38.775Z,90.10
2019-02-05T13:17:08.902Z,90.00
2019-02-05T13:19:39.106Z,90.20
2019-02-05T13:22:09.360Z,90.40
2019-02-05T13:24:39.894Z,90.40
2019-02-05T13:27:10.492Z,90.40
2019-02-05T13:29:40.700Z,90.40
2019-02-05T13:32:11.236Z,90.40
2019-02-05T13:34:41.832Z,90.50
2019-02-05T13:37:12.207Z,90.40
2019-02-05T13:39:42.963Z,90.50
2019-02-05T13:42:12.440Z,90.40
2019-02-05T13:44:43.607Z,90.70
2019-02-05T13:47:13.786Z,90.80
2019-02-05T13:49:43.726Z,90.70
2019-02-05T13:52:14.370Z,90.80
2019-02-05T13:54:44.847Z,90.80
2019-02-05T13:57:15.438Z,90.80
2019-02-05T13:59:45.870Z,90.60
2019-02-05T14:02:16.613Z,90.60
2019-02-05T14:04:47.343Z,90.60
2019-02-05T14:07:36.706Z,90.40
2019-02-05T14:10:10.720Z,90.60
2019-02-05T14:12:41.356Z,90.90
2019-02-05T14:15:12.604Z,91.00
2019-02-05T14:17:42.406Z,90.80
2019-02-05T14:20:13.574Z,91.20
2019-02-05T14:22:44.399Z,91.40
2019-02-05T14:25:14.960Z,91.60
2019-02-05T14:27:44.858Z,91.60
2019-02-05T14:30:35.512Z,91.60
2019-02-05T14:33:06.116Z,91.90
2019-02-05T14:35:36.500Z,92.10
2019-02-05T14:38:08.162Z,92.00
2019-02-05T14:40:38.524Z,92.20
2019-02-05T14:43:09.429Z,92.40
2019-02-05T14:45:40.639Z,92.30
2019-02-05T14:48:11.216Z,92.50
2019-02-05T14:50:42.209Z,92.60
2019-02-05T14:53:13.121Z,92.60
2019-02-05T14:55:43.752Z,92.60
2019-02-05T14:58:15.514Z,92.60
2019-02-05T15:00:46.055Z,92.60
2019-02-05T15:03:17.259Z,92.90
2019-02-05T15:05:48.557Z,92.90
2019-02-05T15:08:20.083Z,93.00
2019-02-05T15:10:50.626Z,93.10
2019-02-05T15:13:20.947Z,92.90
2019-02-05T15:15:51.163Z,92.70
2019-02-05T15:18:23.145Z,92.80
2019-02-05T15:20:53.217Z,92.90
2019-02-05T15:23:23.465Z,92.80
2019-02-05T15:25:54.334Z,93.30
2019-02-05T15:28:24.322Z,93.50
2019-02-05T15:30:54.818Z,92.90
2019-02-05T15:33:42.884Z,92.90
2019-02-05T15:36:19.046Z,93.70
2019-02-05T15:38:48.965Z,93.40
2019-02-05T15:41:18.780Z,93.60
2019-02-05T15:43:48.276Z,93.30
2019-02-05T15:46:19.212Z,93.60
2019-02-05T15:48:50.189Z,93.60
2019-02-05T15:51:20.756Z,94.10
2019-02-05T15:53:51.527Z,93.90
2019-02-05T15:56:21.880Z,93.70
2019-02-05T15:58:52.462Z,93.90
2019-02-05T16:01:22.557Z,93.60
2019-02-05T16:03:53.217Z,94.00
2019-02-05T16:06:23.850Z,93.80
2019-02-05T16:08:54.113Z,93.80
2019-02-05T16:11:23.941Z,93.90
2019-02-05T16:13:54.476Z,94.00
2019-02-05T16:16:25.537Z,94.00
2019-02-05T16:18:55.758Z,93.60
2019-02-05T16:21:26.464Z,93.50
2019-02-05T16:23:58.287Z,93.90
2019-02-05T16:26:28.706Z,94.10
2019-02-05T16:28:58.878Z,94.30
2019-02-05T16:31:29.214Z,94.40
2019-02-05T16:33:59.714Z,93.90
2019-02-05T16:36:30.182Z,94.30
2019-02-05T16:39:19.534Z,94.00
2019-02-05T16:41:49.949Z,94.40
2019-02-05T16:44:20.187Z,95.00
2019-02-05T16:46:50.666Z,95.00
2019-02-05T16:49:22.401Z,95.10
2019-02-05T16:51:52.877Z,95.10
2019-02-05T16:54:23.134Z,94.90
2019-02-05T16:56:53.840Z,95.10
2019-02-05T16:59:24.188Z,94.80
2019-02-05T17:01:57.050Z,94.70
2019-02-05T17:04:27.223Z,95.10
2019-02-05T17:06:57.878Z,94.80
2019-02-05T17:09:28.431Z,94.70
2019-02-05T17:11:58.744Z,95.30
2019-02-05T17:14:28.762Z,95.40
2019-02-05T17:16:59.312Z,95.10
2019-02-05T17:19:31.805Z,95.00
2019-02-05T17:22:01.755Z,94.80
2019-02-05T17:24:31.571Z,94.30
2019-02-05T17:27:02.238Z,94.70
2019-02-05T17:29:31.894Z,95.10
2019-02-05T17:32:02.675Z,95.50
2019-02-05T17:34:32.151Z,95.80
2019-02-05T17:37:02.606Z,95.70
2019-02-05T17:39:33.230Z,95.80
2019-02-05T17:42:03.046Z,95.90
2019-02-05T17:44:33.497Z,96.00
2019-02-05T17:47:04.155Z,96.30
2019-02-05T17:49:34.727Z,96.00
2019-02-05T17:52:05.046Z,95.80
2019-02-05T17:54:35.814Z,95.80
2019-02-05T17:57:06.738Z,95.50
2019-02-05T17:59:37.320Z,95.60
2019-02-05T18:02:07.795Z,95.50
2019-02-05T18:04:38.418Z,95.70
2019-02-05T18:07:09.068Z,95.50
2019-02-05T18:09:39.312Z,95.20
2019-02-05T18:12:09.890Z,95.50
2019-02-05T18:14:58.810Z,95.60
2019-02-05T18:17:29.356Z,95.50
2019-02-05T18:20:18.378Z,95.20
2019-02-05T18:22:48.898Z,95.20
2019-02-05T18:25:19.866Z,95.10
2019-02-05T18:27:50.159Z,94.80
2019-02-05T18:30:26.113Z,95.00
2019-02-05T18:33:04.727Z,95.00
2019-02-05T18:35:28.783Z,95.10
2019-02-05T18:37:59.555Z,95.50
2019-02-05T18:40:30.350Z,95.70
2019-02-05T18:43:00.302Z,95.40
2019-02-05T18:45:30.441Z,95.30
2019-02-05T18:48:01.075Z,95.50
2019-02-05T18:50:32.176Z,95.10
2019-02-05T18:53:02.471Z,95.20
2019-02-05T18:55:34.524Z,95.10
2019-02-05T18:58:09.334Z,95.30
2019-02-05T19:00:40.571Z,95.00
2019-02-05T19:03:15.460Z,95.80
2019-02-05T19:05:43.418Z,95.90
2019-02-05T19:08:16.217Z,96.10
2019-02-05T19:10:46.052Z,96.20
2019-02-05T19:13:16.500Z,96.40
2019-02-05T19:15:47.510Z,96.30
2019-02-05T19:18:18.398Z,96.30
2019-02-05T19:20:49.007Z,97.20
2019-02-05T19:23:19.980Z,96.20
2019-02-05T19:25:59.247Z,96.10
2019-02-05T19:28:34.496Z,96.40
2019-02-05T19:31:11.066Z,96.10
2019-02-05T19:33:42.431Z,95.50
2019-02-05T19:36:12.918Z,95.90
2019-02-05T19:38:43.638Z,95.80
2019-02-05T19:41:14.006Z,96.40
2019-02-05T19:43:45.067Z,96.00
2019-02-05T19:46:33.455Z,95.90
2019-02-05T19:49:21.527Z,96.00
2019-02-05T19:51:44.028Z,95.80
2019-02-05T19:54:15.744Z,95.90
2019-02-05T19:56:47.577Z,95.10
2019-02-05T19:59:18.551Z,95.50
2019-02-05T20:01:49.324Z,95.60
2019-02-05T20:04:20.226Z,95.90
2019-02-05T20:06:51.769Z,95.90
2019-02-05T20:09:22.545Z,96.10
2019-02-05T20:11:53.266Z,96.50
2019-02-05T20:14:24.365Z,96.60
2019-02-05T20:16:55.047Z,96.60
2019-02-05T20:19:26.111Z,96.20
2019-02-05T20:21:56.556Z,96.10
2019-02-05T20:24:26.839Z,96.30
2019-02-05T20:26:57.573Z,96.60
2019-02-05T20:29:27.756Z,96.30
2019-02-05T20:31:58.553Z,96.00
2019-02-05T20:34:29.544Z,95.90
2019-02-05T20:36:59.712Z,95.90
2019-02-05T20:39:30.338Z,96.40
2019-02-05T20:42:01.108Z,96.60
2019-02-05T20:44:31.522Z,96.30
2019-02-05T20:47:01.806Z,96.20
2019-02-05T20:49:32.770Z,96.20
2019-02-05T20:52:21.868Z,96.60
2019-02-05T20:54:52.354Z,96.40
2019-02-05T20:57:22.618Z,96.50
2019-02-05T20:59:53.046Z,96.30
2019-02-05T21:02:22.866Z,96.30
2019-02-05T21:04:53.598Z,96.40
2019-02-05T21:07:23.982Z,96.50
2019-02-05T21:09:54.163Z,96.60
2019-02-05T21:12:24.814Z,96.20
2019-02-05T21:14:55.723Z,96.10
2019-02-05T21:17:26.127Z,96.00
2019-02-05T21:19:56.756Z,96.00
2019-02-05T21:22:26.997Z,96.00
2019-02-05T21:24:57.567Z,95.70
2019-02-05T21:27:28.007Z,95.40
2019-02-05T21:29:58.454Z,95.10
2019-02-05T21:32:28.842Z,95.00
2019-02-05T21:34:59.325Z,95.30
2019-02-05T21:37:29.501Z,95.30
2019-02-05T21:40:02.569Z,95.50
2019-02-05T21:42:51.424Z,95.50
2019-02-05T21:45:22.424Z,95.40
2019-02-05T21:47:52.709Z,95.50
2019-02-05T21:50:23.476Z,95.60
2019-02-05T21:52:54.074Z,95.80
2019-02-05T21:55:24.028Z,95.90
2019-02-05T21:57:54.623Z,95.90
2019-02-05T22:00:30.066Z,96.10
2019-02-05T22:03:00.735Z,95.80
2019-02-05T22:05:31.311Z,95.90
2019-02-05T22:08:01.843Z,96.00
2019-02-05T22:10:32.068Z,95.80
2019-02-05T22:13:02.816Z,96.00
2019-02-05T22:15:33.807Z,95.50
2019-02-05T22:18:04.507Z,96.10
2019-02-05T22:20:35.115Z,95.70
2019-02-05T22:23:05.736Z,95.70
2019-02-05T22:25:36.518Z,95.70
2019-02-05T22:28:06.624Z,95.40
2019-02-05T22:30:36.931Z,95.70
2019-02-05T22:33:07.769Z,96.00
2019-02-05T22:35:37.977Z,95.40
2019-02-05T22:38:08.205Z,95.40
2019-02-05T22:40:38.549Z,95.40
2019-02-05T22:43:27.871Z,95.70
2019-02-05T22:45:58.135Z,95.50
2019-02-05T22:48:28.796Z,95.60
2019-02-05T22:50:59.028Z,95.60
2019-02-05T22:53:30.109Z,95.30
2019-02-05T22:56:19.118Z,95.40
2019-02-05T22:58:49.762Z,95.20
2019-02-05T23:01:48.833Z,95.30
2019-02-05T23:04:55.088Z,95.80
2019-02-05T23:07:27.047Z,96.10
2019-02-05T23:10:18.602Z,95.80
2019-02-05T23:12:56.476Z,96.00
2019-02-05T23:15:29.108Z,96.10
2019-02-05T23:17:59.299Z,96.30
2019-02-05T23:20:30.282Z,96.00
2019-02-05T23:23:01.234Z,95.90
2019-02-05T23:25:31.771Z,96.00
2019-02-05T23:28:01.695Z,96.10
2019-02-05T23:30:32.286Z,96.00
2019-02-05T23:33:02.535Z,96.10
2019-02-05T23:35:33.403Z,96.20
2019-02-05T23:38:03.879Z,96.20
2019-02-05T23:40:34.121Z,95.90
2019-02-05T23:43:04.506Z,95.70
2019-02-05T23:45:34.760Z,95.90
2019-02-05T23:48:05.442Z,95.60
2019-02-05T23:50:35.758Z,95.70
2019-02-05T23:53:06.737Z,95.90
2019-02-05T23:55:37.277Z,96.10
2019-02-05T23:58:07.575Z,96.10
